Aérodrome :
LOGIN :

S'inscrire | Disclaimer

   EN    FR    IT 

 










Légende :    VFR   VFR Marginal   IFR   IFR Intensif   IFR Très Intensif
Visi : 
Plafond : 
>= 8 km
>= 3000ft
5 à 8 km
1000 à 3000 ft
1500m à 5 km
500 à 1000 ft
800 à 1500m
200 à 500 ft
< 800m
< 200 ft
Symboles :   Orages  Brouillard  Fortes neiges  Fortes précipitations  Vent > 20 kt
SIGMETs :   Divers  Orages  Givrage  Turbulence  Onde Orograph.  Cendres Volcan.






- Altitude de l'aérodrome : 226 ft
- Code IATA : BEX


EGUB - RAF Benson

DERNIER METAR :
  • 131420Z 17007KT 9999 FEW024 07/03 Q0997 NOSIG RMK BLU BLU

METARs EXPIRÉS :
  • 131350Z 18007KT 9999 FEW024 SCT200 07/03 Q0997 NOSIG RMK BLU BLU
  • 131320Z 20008KT 9999 FEW024 BKN200 07/03 Q0998 NOSIG RMK BLU BLU
  • 131250Z 22010KT 9999 FEW024 BKN200 08/03 Q0998 NOSIG RMK BLU BLU
  • 131150Z 24006KT 9999 FEW020 09/04 Q0999 TEMPO SCT022 RMK BLU TEMPO WHT

TAF TAF EGUB
Valide du 13 à 15h jusqu'au 13 à 23h UTC


131341Z 1315/1323 16010KT 9999 FEW025
BECMG 1318/1321 BKN016
TEMPO 1320/1323 6000 RA BKN014
ATIS : +44 1491-837766 (x7524)



MET'MAP, la Météo Aéronautique d'un coup d'oeil ! - Copyright ORBIFLY Décembre 2007 - Disclaimer

ORBIFLY MET'MAP TEAM :

Programmation & Développement : Alexandra Zaïnal
Conception & Développement : Baudouin d'Aumeries
Co-Programmation & Développement : Marc-Olivier Méhu
Soutien technique & logistique : Manuel Goepfert

Contact : metmap@orbifly.com




SOURCES & CREDITS :

   NOAA